Razgrad, Bulgaria
Current Conditions -  °F | °C
As of 11:00 PM on Monday 24 Nov 2014 (Local Time) from LBGO Reporting Station
Overcast Overcast  
Wind Chill: 32°   Ceiling: 2000
Heat Index: 37°   Visibility: 6mi
Dew Point: 32°   Wind: 7mph
Humidity: 81%   Direction: 20°NNE
Pressure: 30.42"   Gusts: NA
Location:  43.53°N, 26.53°E
Report Text: LBGO 242000Z 02003MPS 350V060 9000 SCT015 OVC020 03/00 Q1030 NOSIG
Loading
Personal Weather Stations






























Interactive Weather Map New forecast layout! Learn more

10-Day Weather Forecast

Advertisements
Track Severe Weather on mobile